sensor_id;sensor_type;location;lat;lon;timestamp;P1;durP1;ratioP1;P2;durP2;ratioP2
84774;SDS011;75005;50.966;11.344;2024-02-04T00:01:56;2.10;;;1.30;;
84774;SDS011;75005;50.966;11.344;2024-02-04T00:04:22;1.83;;;1.40;;
84774;SDS011;75005;50.966;11.344;2024-02-04T00:06:48;2.53;;;1.42;;
84774;SDS011;75005;50.966;11.344;2024-02-04T00:09:14;2.47;;;1.30;;
84774;SDS011;75005;50.966;11.344;2024-02-04T00:11:39;1.75;;;1.17;;
84774;SDS011;75005;50.966;11.344;2024-02-04T00:14:07;5.68;;;2.00;;
84774;SDS011;75005;50.966;11.344;2024-02-04T00:16:36;2.22;;;1.45;;
84774;SDS011;75005;50.966;11.344;2024-02-04T00:19:02;3.67;;;1.60;;
84774;SDS011;75005;50.966;11.344;2024-02-04T00:21:27;2.65;;;1.70;;
84774;SDS011;75005;50.966;11.344;2024-02-04T00:23:53;5.97;;;1.60;;
84774;SDS011;75005;50.966;11.344;2024-02-04T00:26:18;2.38;;;1.48;;
84774;SDS011;75005;50.966;11.344;2024-02-04T00:28:44;1.70;;;1.10;;
84774;SDS011;75005;50.966;11.344;2024-02-04T00:31:09;4.63;;;2.53;;
84774;SDS011;75005;50.966;11.344;2024-02-04T00:33:34;2.25;;;1.42;;
84774;SDS011;75005;50.966;11.344;2024-02-04T00:36:00;3.17;;;1.48;;
84774;SDS011;75005;50.966;11.344;2024-02-04T00:38:25;2.47;;;1.45;;
84774;SDS011;75005;50.966;11.344;2024-02-04T00:40:51;2.55;;;2.22;;
84774;SDS011;75005;50.966;11.344;2024-02-04T00:43:17;2.50;;;1.50;;
84774;SDS011;75005;50.966;11.344;2024-02-04T00:45:43;2.28;;;1.40;;
84774;SDS011;75005;50.966;11.344;2024-02-04T00:48:08;2.30;;;1.50;;
84774;SDS011;75005;50.966;11.344;2024-02-04T00:50:34;2.63;;;1.48;;
84774;SDS011;75005;50.966;11.344;2024-02-04T00:52:59;2.05;;;1.52;;
84774;SDS011;75005;50.966;11.344;2024-02-04T00:55:25;2.42;;;1.42;;
84774;SDS011;75005;50.966;11.344;2024-02-04T00:57:50;2.95;;;1.55;;
84774;SDS011;75005;50.966;11.344;2024-02-04T01:00:16;2.13;;;1.40;;
84774;SDS011;75005;50.966;11.344;2024-02-04T01:02:42;3.15;;;1.77;;
84774;SDS011;75005;50.966;11.344;2024-02-04T01:05:07;3.15;;;1.63;;
84774;SDS011;75005;50.966;11.344;2024-02-04T01:07:33;2.75;;;1.50;;
84774;SDS011;75005;50.966;11.344;2024-02-04T01:09:58;4.22;;;1.30;;
84774;SDS011;75005;50.966;11.344;2024-02-04T01:12:24;1.95;;;1.27;;
84774;SDS011;75005;50.966;11.344;2024-02-04T01:14:49;2.80;;;1.65;;
84774;SDS011;75005;50.966;11.344;2024-02-04T01:17:14;1.98;;;1.15;;
84774;SDS011;75005;50.966;11.344;2024-02-04T01:19:40;2.22;;;1.40;;
84774;SDS011;75005;50.966;11.344;2024-02-04T01:22:05;2.10;;;1.40;;
84774;SDS011;75005;50.966;11.344;2024-02-04T01:24:31;3.00;;;1.67;;
84774;SDS011;75005;50.966;11.344;2024-02-04T01:26:56;1.90;;;1.30;;
84774;SDS011;75005;50.966;11.344;2024-02-04T01:29:22;1.52;;;0.88;;
84774;SDS011;75005;50.966;11.344;2024-02-04T01:31:47;1.48;;;1.13;;
84774;SDS011;75005;50.966;11.344;2024-02-04T01:34:13;2.30;;;1.20;;
84774;SDS011;75005;50.966;11.344;2024-02-04T01:36:38;2.13;;;1.17;;
84774;SDS011;75005;50.966;11.344;2024-02-04T01:39:03;1.45;;;1.13;;
84774;SDS011;75005;50.966;11.344;2024-02-04T01:41:30;1.58;;;1.10;;
84774;SDS011;75005;50.966;11.344;2024-02-04T01:43:55;3.25;;;1.30;;
84774;SDS011;75005;50.966;11.344;2024-02-04T01:46:21;2.65;;;1.52;;
84774;SDS011;75005;50.966;11.344;2024-02-04T01:48:47;2.63;;;1.25;;
84774;SDS011;75005;50.966;11.344;2024-02-04T01:51:14;1.58;;;1.20;;
84774;SDS011;75005;50.966;11.344;2024-02-04T01:53:42;1.23;;;0.80;;
84774;SDS011;75005;50.966;11.344;2024-02-04T01:56:09;1.75;;;1.00;;
84774;SDS011;75005;50.966;11.344;2024-02-04T01:58:36;1.23;;;0.82;;
84774;SDS011;75005;50.966;11.344;2024-02-04T02:01:01;4.90;;;1.48;;
84774;SDS011;75005;50.966;11.344;2024-02-04T02:03:27;4.75;;;1.40;;
84774;SDS011;75005;50.966;11.344;2024-02-04T02:05:55;1.23;;;0.88;;
84774;SDS011;75005;50.966;11.344;2024-02-04T02:08:21;2.65;;;1.00;;
84774;SDS011;75005;50.966;11.344;2024-02-04T02:10:47;1.95;;;1.42;;
84774;SDS011;75005;50.966;11.344;2024-02-04T02:15:58;3.08;;;1.05;;
84774;SDS011;75005;50.966;11.344;2024-02-04T02:26:47;3.00;;;1.50;;
84774;SDS011;75005;50.966;11.344;2024-02-04T02:29:14;1.70;;;1.00;;
84774;SDS011;75005;50.966;11.344;2024-02-04T02:31:40;2.55;;;1.50;;
84774;SDS011;75005;50.966;11.344;2024-02-04T02:34:07;2.38;;;1.30;;
84774;SDS011;75005;50.966;11.344;2024-02-04T02:36:45;2.30;;;1.33;;
84774;SDS011;75005;50.966;11.344;2024-02-04T02:39:15;3.35;;;2.00;;
84774;SDS011;75005;50.966;11.344;2024-02-04T02:41:44;2.65;;;1.73;;
84774;SDS011;75005;50.966;11.344;2024-02-04T02:44:16;4.07;;;1.73;;
84774;SDS011;75005;50.966;11.344;2024-02-04T02:46:42;3.97;;;2.28;;
84774;SDS011;75005;50.966;11.344;2024-02-04T02:49:09;4.25;;;1.90;;
84774;SDS011;75005;50.966;11.344;2024-02-04T02:51:35;2.10;;;1.65;;
84774;SDS011;75005;50.966;11.344;2024-02-04T02:54:00;3.97;;;1.52;;
84774;SDS011;75005;50.966;11.344;2024-02-04T02:56:25;2.28;;;1.50;;
84774;SDS011;75005;50.966;11.344;2024-02-04T02:58:51;4.88;;;2.30;;
84774;SDS011;75005;50.966;11.344;2024-02-04T03:01:17;3.25;;;1.95;;
84774;SDS011;75005;50.966;11.344;2024-02-04T03:03:42;3.92;;;2.05;;
84774;SDS011;75005;50.966;11.344;2024-02-04T03:06:08;4.20;;;2.05;;
84774;SDS011;75005;50.966;11.344;2024-02-04T03:08:33;1.83;;;1.30;;
84774;SDS011;75005;50.966;11.344;2024-02-04T03:10:58;2.83;;;1.90;;
84774;SDS011;75005;50.966;11.344;2024-02-04T03:13:24;2.35;;;1.67;;
84774;SDS011;75005;50.966;11.344;2024-02-04T03:15:49;2.10;;;1.73;;
84774;SDS011;75005;50.966;11.344;2024-02-04T03:18:15;3.13;;;1.70;;
84774;SDS011;75005;50.966;11.344;2024-02-04T03:20:40;2.90;;;1.60;;
84774;SDS011;75005;50.966;11.344;2024-02-04T03:23:05;2.90;;;1.50;;
84774;SDS011;75005;50.966;11.344;2024-02-04T03:25:31;2.45;;;1.70;;
84774;SDS011;75005;50.966;11.344;2024-02-04T03:27:56;2.50;;;1.40;;
84774;SDS011;75005;50.966;11.344;2024-02-04T03:30:22;2.85;;;1.50;;
84774;SDS011;75005;50.966;11.344;2024-02-04T03:32:47;1.95;;;1.15;;
84774;SDS011;75005;50.966;11.344;2024-02-04T03:35:12;2.53;;;1.50;;
84774;SDS011;75005;50.966;11.344;2024-02-04T03:37:38;2.05;;;1.48;;
84774;SDS011;75005;50.966;11.344;2024-02-04T03:40:03;3.22;;;1.70;;
84774;SDS011;75005;50.966;11.344;2024-02-04T03:42:29;2.40;;;2.05;;
84774;SDS011;75005;50.966;11.344;2024-02-04T03:44:55;5.60;;;1.77;;
84774;SDS011;75005;50.966;11.344;2024-02-04T03:47:21;2.75;;;1.60;;
84774;SDS011;75005;50.966;11.344;2024-02-04T03:49:48;2.70;;;1.58;;
84774;SDS011;75005;50.966;11.344;2024-02-04T03:52:14;2.05;;;1.52;;
84774;SDS011;75005;50.966;11.344;2024-02-04T03:54:39;2.73;;;1.03;;
84774;SDS011;75005;50.966;11.344;2024-02-04T03:57:04;2.08;;;1.20;;
84774;SDS011;75005;50.966;11.344;2024-02-04T03:59:30;1.67;;;1.13;;
84774;SDS011;75005;50.966;11.344;2024-02-04T04:01:55;3.15;;;1.02;;
84774;SDS011;75005;50.966;11.344;2024-02-04T04:04:22;1.83;;;1.17;;
84774;SDS011;75005;50.966;11.344;2024-02-04T04:06:48;1.20;;;1.02;;
84774;SDS011;75005;50.966;11.344;2024-02-04T04:09:13;3.13;;;1.13;;
84774;SDS011;75005;50.966;11.344;2024-02-04T04:11:39;2.15;;;0.90;;
84774;SDS011;75005;50.966;11.344;2024-02-04T04:14:04;1.52;;;1.02;;
84774;SDS011;75005;50.966;11.344;2024-02-04T04:16:30;1.70;;;1.05;;
84774;SDS011;75005;50.966;11.344;2024-02-04T04:18:55;1.10;;;0.93;;
84774;SDS011;75005;50.966;11.344;2024-02-04T04:21:20;1.30;;;0.88;;
84774;SDS011;75005;50.966;11.344;2024-02-04T04:23:46;1.05;;;0.90;;
84774;SDS011;75005;50.966;11.344;2024-02-04T04:26:11;1.52;;;0.85;;
84774;SDS011;75005;50.966;11.344;2024-02-04T04:28:37;1.08;;;0.80;;
84774;SDS011;75005;50.966;11.344;2024-02-04T04:31:03;0.90;;;0.65;;
84774;SDS011;75005;50.966;11.344;2024-02-04T04:33:28;1.77;;;0.90;;
84774;SDS011;75005;50.966;11.344;2024-02-04T04:35:54;0.40;;;0.40;;
84774;SDS011;75005;50.966;11.344;2024-02-04T04:38:20;1.08;;;0.75;;
84774;SDS011;75005;50.966;11.344;2024-02-04T04:40:45;0.60;;;0.60;;
84774;SDS011;75005;50.966;11.344;2024-02-04T04:43:11;0.90;;;0.90;;
84774;SDS011;75005;50.966;11.344;2024-02-04T04:45:37;0.90;;;0.68;;
84774;SDS011;75005;50.966;11.344;2024-02-04T04:48:02;0.30;;;0.30;;
84774;SDS011;75005;50.966;11.344;2024-02-04T04:50:28;0.50;;;0.40;;
84774;SDS011;75005;50.966;11.344;2024-02-04T04:52:54;0.97;;;0.50;;
84774;SDS011;75005;50.966;11.344;2024-02-04T04:55:19;0.20;;;0.20;;
84774;SDS011;75005;50.966;11.344;2024-02-04T04:57:44;0.38;;;0.38;;
84774;SDS011;75005;50.966;11.344;2024-02-04T05:00:10;0.70;;;0.70;;
84774;SDS011;75005;50.966;11.344;2024-02-04T05:02:37;0.82;;;0.40;;
84774;SDS011;75005;50.966;11.344;2024-02-04T05:05:05;0.98;;;0.93;;
84774;SDS011;75005;50.966;11.344;2024-02-04T05:07:31;0.38;;;0.35;;
84774;SDS011;75005;50.966;11.344;2024-02-04T05:09:56;0.70;;;0.52;;
84774;SDS011;75005;50.966;11.344;2024-02-04T05:12:22;0.30;;;0.30;;
84774;SDS011;75005;50.966;11.344;2024-02-04T05:14:47;0.77;;;0.50;;
84774;SDS011;75005;50.966;11.344;2024-02-04T05:17:12;0.45;;;0.25;;
84774;SDS011;75005;50.966;11.344;2024-02-04T05:19:38;0.20;;;0.20;;
84774;SDS011;75005;50.966;11.344;2024-02-04T05:22:06;0.50;;;0.40;;
84774;SDS011;75005;50.966;11.344;2024-02-04T05:24:32;0.30;;;0.30;;
84774;SDS011;75005;50.966;11.344;2024-02-04T05:26:57;0.20;;;0.20;;
84774;SDS011;75005;50.966;11.344;2024-02-04T05:29:22;1.47;;;0.40;;
84774;SDS011;75005;50.966;11.344;2024-02-04T05:31:48;0.40;;;0.40;;
84774;SDS011;75005;50.966;11.344;2024-02-04T05:34:13;0.40;;;0.30;;
84774;SDS011;75005;50.966;11.344;2024-02-04T05:36:39;0.50;;;0.32;;
84774;SDS011;75005;50.966;11.344;2024-02-04T05:39:09;0.20;;;0.20;;
84774;SDS011;75005;50.966;11.344;2024-02-04T05:41:39;0.32;;;0.32;;
84774;SDS011;75005;50.966;11.344;2024-02-04T05:44:05;0.93;;;0.20;;
84774;SDS011;75005;50.966;11.344;2024-02-04T05:46:31;0.28;;;0.28;;
84774;SDS011;75005;50.966;11.344;2024-02-04T05:48:57;0.47;;;0.30;;
84774;SDS011;75005;50.966;11.344;2024-02-04T05:51:22;0.20;;;0.20;;
84774;SDS011;75005;50.966;11.344;2024-02-04T05:53:48;0.30;;;0.30;;
84774;SDS011;75005;50.966;11.344;2024-02-04T05:56:14;0.20;;;0.20;;
84774;SDS011;75005;50.966;11.344;2024-02-04T05:58:39;0.20;;;0.20;;
84774;SDS011;75005;50.966;11.344;2024-02-04T06:01:05;0.73;;;0.28;;
84774;SDS011;75005;50.966;11.344;2024-02-04T06:03:31;0.28;;;0.28;;
84774;SDS011;75005;50.966;11.344;2024-02-04T06:05:56;0.20;;;0.20;;
84774;SDS011;75005;50.966;11.344;2024-02-04T06:08:22;0.60;;;0.35;;
84774;SDS011;75005;50.966;11.344;2024-02-04T06:10:47;0.20;;;0.20;;
84774;SDS011;75005;50.966;11.344;2024-02-04T06:13:13;0.20;;;0.20;;
84774;SDS011;75005;50.966;11.344;2024-02-04T06:15:39;0.20;;;0.20;;
84774;SDS011;75005;50.966;11.344;2024-02-04T06:18:04;0.35;;;0.28;;
84774;SDS011;75005;50.966;11.344;2024-02-04T06:20:30;0.20;;;0.20;;
84774;SDS011;75005;50.966;11.344;2024-02-04T06:22:55;0.10;;;0.10;;
84774;SDS011;75005;50.966;11.344;2024-02-04T06:25:22;0.15;;;0.15;;
84774;SDS011;75005;50.966;11.344;2024-02-04T06:27:48;0.20;;;0.20;;
84774;SDS011;75005;50.966;11.344;2024-02-04T06:30:13;2.38;;;0.20;;
84774;SDS011;75005;50.966;11.344;2024-02-04T06:32:39;0.70;;;0.40;;
84774;SDS011;75005;50.966;11.344;2024-02-04T06:35:04;0.10;;;0.10;;
84774;SDS011;75005;50.966;11.344;2024-02-04T06:37:30;0.20;;;0.20;;
84774;SDS011;75005;50.966;11.344;2024-02-04T06:39:56;0.10;;;0.10;;
84774;SDS011;75005;50.966;11.344;2024-02-04T06:42:21;0.70;;;0.70;;
84774;SDS011;75005;50.966;11.344;2024-02-04T06:44:46;0.20;;;0.20;;
84774;SDS011;75005;50.966;11.344;2024-02-04T06:47:12;1.45;;;0.40;;
84774;SDS011;75005;50.966;11.344;2024-02-04T06:49:39;1.52;;;0.43;;
84774;SDS011;75005;50.966;11.344;2024-02-04T06:52:05;1.52;;;0.50;;
84774;SDS011;75005;50.966;11.344;2024-02-04T06:54:30;0.52;;;0.40;;
84774;SDS011;75005;50.966;11.344;2024-02-04T06:56:56;0.47;;;0.30;;
84774;SDS011;75005;50.966;11.344;2024-02-04T06:59:21;0.38;;;0.30;;
84774;SDS011;75005;50.966;11.344;2024-02-04T07:01:47;0.20;;;0.20;;
84774;SDS011;75005;50.966;11.344;2024-02-04T07:04:12;0.30;;;0.30;;
84774;SDS011;75005;50.966;11.344;2024-02-04T07:06:38;0.35;;;0.35;;
84774;SDS011;75005;50.966;11.344;2024-02-04T07:09:03;0.60;;;0.30;;
84774;SDS011;75005;50.966;11.344;2024-02-04T07:11:29;0.40;;;0.40;;
84774;SDS011;75005;50.966;11.344;2024-02-04T07:13:54;0.45;;;0.32;;
84774;SDS011;75005;50.966;11.344;2024-02-04T07:16:24;0.20;;;0.20;;
84774;SDS011;75005;50.966;11.344;2024-02-04T07:18:50;0.10;;;0.10;;
84774;SDS011;75005;50.966;11.344;2024-02-04T07:21:15;0.50;;;0.50;;
84774;SDS011;75005;50.966;11.344;2024-02-04T07:23:41;1.83;;;1.00;;
84774;SDS011;75005;50.966;11.344;2024-02-04T07:26:06;0.43;;;0.40;;
84774;SDS011;75005;50.966;11.344;2024-02-04T07:28:33;0.20;;;0.20;;
84774;SDS011;75005;50.966;11.344;2024-02-04T07:30:58;0.75;;;0.20;;
84774;SDS011;75005;50.966;11.344;2024-02-04T07:33:24;0.35;;;0.35;;
84774;SDS011;75005;50.966;11.344;2024-02-04T07:35:49;0.30;;;0.30;;
84774;SDS011;75005;50.966;11.344;2024-02-04T07:38:14;0.23;;;0.17;;
84774;SDS011;75005;50.966;11.344;2024-02-04T07:40:40;0.40;;;0.30;;
84774;SDS011;75005;50.966;11.344;2024-02-04T07:43:05;0.47;;;0.43;;
84774;SDS011;75005;50.966;11.344;2024-02-04T07:45:30;0.50;;;0.50;;
84774;SDS011;75005;50.966;11.344;2024-02-04T07:47:56;0.32;;;0.32;;
84774;SDS011;75005;50.966;11.344;2024-02-04T07:50:21;0.60;;;0.45;;
84774;SDS011;75005;50.966;11.344;2024-02-04T07:52:47;1.75;;;0.50;;
84774;SDS011;75005;50.966;11.344;2024-02-04T07:55:12;0.80;;;0.50;;
84774;SDS011;75005;50.966;11.344;2024-02-04T07:57:38;1.10;;;0.40;;
84774;SDS011;75005;50.966;11.344;2024-02-04T08:00:04;0.77;;;0.55;;
84774;SDS011;75005;50.966;11.344;2024-02-04T08:02:31;0.60;;;0.50;;
84774;SDS011;75005;50.966;11.344;2024-02-04T08:04:56;0.30;;;0.30;;
84774;SDS011;75005;50.966;11.344;2024-02-04T08:07:22;0.70;;;0.40;;
84774;SDS011;75005;50.966;11.344;2024-02-04T08:09:48;1.05;;;0.60;;
84774;SDS011;75005;50.966;11.344;2024-02-04T08:12:15;0.90;;;0.60;;
84774;SDS011;75005;50.966;11.344;2024-02-04T08:14:41;1.13;;;0.73;;
84774;SDS011;75005;50.966;11.344;2024-02-04T08:17:06;0.60;;;0.43;;
84774;SDS011;75005;50.966;11.344;2024-02-04T08:19:32;0.57;;;0.47;;
84774;SDS011;75005;50.966;11.344;2024-02-04T08:21:57;0.63;;;0.55;;
84774;SDS011;75005;50.966;11.344;2024-02-04T08:24:23;1.25;;;0.40;;
84774;SDS011;75005;50.966;11.344;2024-02-04T08:26:49;0.40;;;0.30;;
84774;SDS011;75005;50.966;11.344;2024-02-04T08:29:14;0.47;;;0.45;;
84774;SDS011;75005;50.966;11.344;2024-02-04T08:31:40;0.70;;;0.30;;
84774;SDS011;75005;50.966;11.344;2024-02-04T08:34:05;0.30;;;0.20;;
84774;SDS011;75005;50.966;11.344;2024-02-04T08:36:32;0.20;;;0.20;;
84774;SDS011;75005;50.966;11.344;2024-02-04T08:38:57;0.10;;;0.10;;
84774;SDS011;75005;50.966;11.344;2024-02-04T08:41:23;0.28;;;0.20;;
84774;SDS011;75005;50.966;11.344;2024-02-04T08:43:49;0.10;;;0.10;;
84774;SDS011;75005;50.966;11.344;2024-02-04T08:46:14;0.20;;;0.10;;
84774;SDS011;75005;50.966;11.344;2024-02-04T08:48:41;0.22;;;0.22;;
84774;SDS011;75005;50.966;11.344;2024-02-04T08:51:11;0.20;;;0.20;;
84774;SDS011;75005;50.966;11.344;2024-02-04T08:53:38;0.20;;;0.20;;
84774;SDS011;75005;50.966;11.344;2024-02-04T08:56:05;0.20;;;0.20;;
84774;SDS011;75005;50.966;11.344;2024-02-04T08:58:31;0.47;;;0.28;;
84774;SDS011;75005;50.966;11.344;2024-02-04T09:00:56;1.38;;;0.50;;
84774;SDS011;75005;50.966;11.344;2024-02-04T09:03:22;0.30;;;0.27;;
84774;SDS011;75005;50.966;11.344;2024-02-04T09:05:48;1.20;;;1.10;;
84774;SDS011;75005;50.966;11.344;2024-02-04T09:08:14;0.82;;;0.60;;
84774;SDS011;75005;50.966;11.344;2024-02-04T09:10:39;1.30;;;0.80;;
84774;SDS011;75005;50.966;11.344;2024-02-04T09:13:04;3.03;;;0.55;;
84774;SDS011;75005;50.966;11.344;2024-02-04T09:15:30;1.80;;;1.30;;
84774;SDS011;75005;50.966;11.344;2024-02-04T09:17:55;0.70;;;0.60;;
84774;SDS011;75005;50.966;11.344;2024-02-04T09:20:21;0.75;;;0.75;;
84774;SDS011;75005;50.966;11.344;2024-02-04T09:22:46;1.13;;;0.73;;
84774;SDS011;75005;50.966;11.344;2024-02-04T09:25:11;0.60;;;0.55;;
84774;SDS011;75005;50.966;11.344;2024-02-04T09:27:37;0.60;;;0.50;;
84774;SDS011;75005;50.966;11.344;2024-02-04T09:30:03;1.30;;;1.00;;
84774;SDS011;75005;50.966;11.344;2024-02-04T09:32:29;1.30;;;0.75;;
84774;SDS011;75005;50.966;11.344;2024-02-04T09:34:54;0.73;;;0.70;;
84774;SDS011;75005;50.966;11.344;2024-02-04T09:37:19;1.25;;;0.80;;
84774;SDS011;75005;50.966;11.344;2024-02-04T09:39:45;0.88;;;0.80;;
84774;SDS011;75005;50.966;11.344;2024-02-04T09:42:11;1.40;;;1.13;;
84774;SDS011;75005;50.966;11.344;2024-02-04T09:44:48;3.42;;;0.98;;
84774;SDS011;75005;50.966;11.344;2024-02-04T09:47:14;4.65;;;1.38;;
84774;SDS011;75005;50.966;11.344;2024-02-04T09:49:40;1.60;;;1.17;;
84774;SDS011;75005;50.966;11.344;2024-02-04T09:52:07;1.05;;;0.90;;
84774;SDS011;75005;50.966;11.344;2024-02-04T09:54:34;1.20;;;0.70;;
84774;SDS011;75005;50.966;11.344;2024-02-04T09:57:09;1.98;;;0.93;;
84774;SDS011;75005;50.966;11.344;2024-02-04T09:59:34;1.35;;;0.70;;
84774;SDS011;75005;50.966;11.344;2024-02-04T10:02:00;2.45;;;1.00;;
84774;SDS011;75005;50.966;11.344;2024-02-04T10:04:28;1.40;;;1.08;;
84774;SDS011;75005;50.966;11.344;2024-02-04T10:06:53;2.05;;;1.08;;
84774;SDS011;75005;50.966;11.344;2024-02-04T10:09:19;2.38;;;1.25;;
84774;SDS011;75005;50.966;11.344;2024-02-04T10:11:45;2.45;;;1.15;;
84774;SDS011;75005;50.966;11.344;2024-02-04T10:14:10;1.40;;;0.90;;
84774;SDS011;75005;50.966;11.344;2024-02-04T10:16:36;0.98;;;0.88;;
84774;SDS011;75005;50.966;11.344;2024-02-04T10:19:02;1.77;;;0.70;;
84774;SDS011;75005;50.966;11.344;2024-02-04T10:21:28;3.38;;;0.75;;
84774;SDS011;75005;50.966;11.344;2024-02-04T10:23:53;1.17;;;0.52;;
84774;SDS011;75005;50.966;11.344;2024-02-04T10:26:20;1.10;;;0.82;;
84774;SDS011;75005;50.966;11.344;2024-02-04T10:28:46;1.15;;;0.90;;
84774;SDS011;75005;50.966;11.344;2024-02-04T10:31:13;1.30;;;0.93;;
84774;SDS011;75005;50.966;11.344;2024-02-04T10:33:39;0.85;;;0.70;;
84774;SDS011;75005;50.966;11.344;2024-02-04T10:36:05;0.80;;;0.60;;
84774;SDS011;75005;50.966;11.344;2024-02-04T10:38:33;0.50;;;0.50;;
84774;SDS011;75005;50.966;11.344;2024-02-04T10:40:59;0.52;;;0.40;;
84774;SDS011;75005;50.966;11.344;2024-02-04T10:43:31;0.57;;;0.57;;
84774;SDS011;75005;50.966;11.344;2024-02-04T10:46:00;1.27;;;0.80;;
84774;SDS011;75005;50.966;11.344;2024-02-04T10:48:43;3.17;;;1.50;;
84774;SDS011;75005;50.966;11.344;2024-02-04T10:51:14;2.92;;;1.27;;
84774;SDS011;75005;50.966;11.344;2024-02-04T10:53:44;0.77;;;0.57;;
84774;SDS011;75005;50.966;11.344;2024-02-04T10:56:14;4.32;;;1.45;;
84774;SDS011;75005;50.966;11.344;2024-02-04T10:58:44;2.25;;;1.45;;
84774;SDS011;75005;50.966;11.344;2024-02-04T11:01:11;1.95;;;0.70;;
84774;SDS011;75005;50.966;11.344;2024-02-04T11:03:37;0.80;;;0.55;;
84774;SDS011;75005;50.966;11.344;2024-02-04T11:06:05;0.55;;;0.52;;
84774;SDS011;75005;50.966;11.344;2024-02-04T11:08:33;1.98;;;0.50;;
84774;SDS011;75005;50.966;11.344;2024-02-04T11:10:59;1.08;;;0.57;;
84774;SDS011;75005;50.966;11.344;2024-02-04T11:13:25;3.33;;;0.65;;
84774;SDS011;75005;50.966;11.344;2024-02-04T11:15:53;1.13;;;0.70;;
84774;SDS011;75005;50.966;11.344;2024-02-04T11:26:25;2.15;;;0.85;;
84774;SDS011;75005;50.966;11.344;2024-02-04T11:28:52;2.08;;;0.70;;
84774;SDS011;75005;50.966;11.344;2024-02-04T11:31:18;1.23;;;0.93;;
84774;SDS011;75005;50.966;11.344;2024-02-04T11:33:44;1.17;;;0.80;;
84774;SDS011;75005;50.966;11.344;2024-02-04T11:36:13;1.00;;;0.90;;
84774;SDS011;75005;50.966;11.344;2024-02-04T11:38:40;2.33;;;0.60;;
84774;SDS011;75005;50.966;11.344;2024-02-04T11:41:06;0.73;;;0.50;;
84774;SDS011;75005;50.966;11.344;2024-02-04T11:43:33;0.93;;;0.60;;
84774;SDS011;75005;50.966;11.344;2024-02-04T11:45:59;0.98;;;0.70;;
84774;SDS011;75005;50.966;11.344;2024-02-04T11:48:34;0.80;;;0.52;;
84774;SDS011;75005;50.966;11.344;2024-02-04T11:51:01;1.08;;;0.60;;
84774;SDS011;75005;50.966;11.344;2024-02-04T11:53:29;1.98;;;0.85;;
84774;SDS011;75005;50.966;11.344;2024-02-04T11:55:57;0.60;;;0.55;;
84774;SDS011;75005;50.966;11.344;2024-02-04T11:58:25;1.10;;;0.63;;
84774;SDS011;75005;50.966;11.344;2024-02-04T12:00:52;1.00;;;0.70;;
84774;SDS011;75005;50.966;11.344;2024-02-04T12:03:27;1.13;;;0.60;;
84774;SDS011;75005;50.966;11.344;2024-02-04T12:05:57;0.95;;;0.70;;
84774;SDS011;75005;50.966;11.344;2024-02-04T12:08:23;0.50;;;0.43;;
84774;SDS011;75005;50.966;11.344;2024-02-04T12:10:49;0.30;;;0.30;;
84774;SDS011;75005;50.966;11.344;2024-02-04T12:13:14;0.70;;;0.32;;
84774;SDS011;75005;50.966;11.344;2024-02-04T12:15:40;0.43;;;0.40;;
84774;SDS011;75005;50.966;11.344;2024-02-04T12:18:07;0.65;;;0.50;;
84774;SDS011;75005;50.966;11.344;2024-02-04T12:20:33;0.40;;;0.40;;
84774;SDS011;75005;50.966;11.344;2024-02-04T12:22:58;1.00;;;0.70;;
84774;SDS011;75005;50.966;11.344;2024-02-04T12:25:24;0.85;;;0.85;;
84774;SDS011;75005;50.966;11.344;2024-02-04T12:27:52;0.50;;;0.50;;
84774;SDS011;75005;50.966;11.344;2024-02-04T12:30:18;1.38;;;0.70;;
84774;SDS011;75005;50.966;11.344;2024-02-04T12:32:43;1.35;;;0.77;;
84774;SDS011;75005;50.966;11.344;2024-02-04T12:35:15;0.68;;;0.68;;
84774;SDS011;75005;50.966;11.344;2024-02-04T12:37:50;0.88;;;0.65;;
84774;SDS011;75005;50.966;11.344;2024-02-04T12:45:21;0.60;;;0.47;;
84774;SDS011;75005;50.966;11.344;2024-02-04T12:47:51;0.55;;;0.47;;
84774;SDS011;75005;50.966;11.344;2024-02-04T12:50:18;0.38;;;0.30;;
84774;SDS011;75005;50.966;11.344;2024-02-04T12:52:45;0.60;;;0.60;;
84774;SDS011;75005;50.966;11.344;2024-02-04T12:55:23;0.38;;;0.38;;
84774;SDS011;75005;50.966;11.344;2024-02-04T12:57:50;2.03;;;0.43;;
84774;SDS011;75005;50.966;11.344;2024-02-04T13:00:19;1.80;;;0.50;;
84774;SDS011;75005;50.966;11.344;2024-02-04T13:02:44;0.85;;;0.55;;
84774;SDS011;75005;50.966;11.344;2024-02-04T13:05:23;0.77;;;0.50;;
84774;SDS011;75005;50.966;11.344;2024-02-04T13:07:54;0.82;;;0.50;;
84774;SDS011;75005;50.966;11.344;2024-02-04T13:10:25;0.60;;;0.60;;
84774;SDS011;75005;50.966;11.344;2024-02-04T13:13:25;1.75;;;0.77;;
84774;SDS011;75005;50.966;11.344;2024-02-04T13:15:43;0.77;;;0.50;;
84774;SDS011;75005;50.966;11.344;2024-02-04T13:18:09;0.63;;;0.40;;
84774;SDS011;75005;50.966;11.344;2024-02-04T13:20:40;0.32;;;0.32;;
84774;SDS011;75005;50.966;11.344;2024-02-04T13:23:07;3.13;;;0.50;;
84774;SDS011;75005;50.966;11.344;2024-02-04T13:25:33;1.00;;;0.90;;
84774;SDS011;75005;50.966;11.344;2024-02-04T13:27:59;1.17;;;0.45;;
84774;SDS011;75005;50.966;11.344;2024-02-04T13:30:25;1.63;;;1.52;;
84774;SDS011;75005;50.966;11.344;2024-02-04T13:32:50;0.70;;;0.50;;
84774;SDS011;75005;50.966;11.344;2024-02-04T13:35:16;0.60;;;0.50;;
84774;SDS011;75005;50.966;11.344;2024-02-04T13:37:46;0.95;;;0.50;;
84774;SDS011;75005;50.966;11.344;2024-02-04T13:40:13;0.40;;;0.40;;
84774;SDS011;75005;50.966;11.344;2024-02-04T13:42:39;0.70;;;0.60;;
84774;SDS011;75005;50.966;11.344;2024-02-04T13:45:05;0.60;;;0.60;;
84774;SDS011;75005;50.966;11.344;2024-02-04T13:47:31;1.67;;;0.82;;
84774;SDS011;75005;50.966;11.344;2024-02-04T13:49:56;0.70;;;0.40;;
84774;SDS011;75005;50.966;11.344;2024-02-04T13:52:22;1.10;;;0.73;;
84774;SDS011;75005;50.966;11.344;2024-02-04T13:54:47;1.35;;;1.00;;
84774;SDS011;75005;50.966;11.344;2024-02-04T13:57:13;1.58;;;0.80;;
84774;SDS011;75005;50.966;11.344;2024-02-04T13:59:39;1.35;;;0.77;;
84774;SDS011;75005;50.966;11.344;2024-02-04T14:02:04;1.92;;;0.90;;
84774;SDS011;75005;50.966;11.344;2024-02-04T14:04:30;1.10;;;0.60;;
84774;SDS011;75005;50.966;11.344;2024-02-04T14:06:56;1.88;;;1.10;;
84774;SDS011;75005;50.966;11.344;2024-02-04T14:09:22;2.30;;;1.00;;
84774;SDS011;75005;50.966;11.344;2024-02-04T14:11:47;0.70;;;0.70;;
84774;SDS011;75005;50.966;11.344;2024-02-04T14:14:13;1.35;;;0.90;;
84774;SDS011;75005;50.966;11.344;2024-02-04T14:16:38;0.85;;;0.60;;
84774;SDS011;75005;50.966;11.344;2024-02-04T14:19:04;0.75;;;0.47;;
84774;SDS011;75005;50.966;11.344;2024-02-04T14:21:30;0.68;;;0.40;;
84774;SDS011;75005;50.966;11.344;2024-02-04T14:23:55;1.30;;;0.90;;
84774;SDS011;75005;50.966;11.344;2024-02-04T14:26:21;1.45;;;0.57;;
84774;SDS011;75005;50.966;11.344;2024-02-04T14:28:46;1.70;;;0.70;;
84774;SDS011;75005;50.966;11.344;2024-02-04T14:31:12;1.48;;;0.30;;
84774;SDS011;75005;50.966;11.344;2024-02-04T14:33:37;0.50;;;0.50;;
84774;SDS011;75005;50.966;11.344;2024-02-04T14:36:04;0.60;;;0.40;;
84774;SDS011;75005;50.966;11.344;2024-02-04T14:38:31;0.77;;;0.20;;
84774;SDS011;75005;50.966;11.344;2024-02-04T14:40:57;1.55;;;0.47;;
84774;SDS011;75005;50.966;11.344;2024-02-04T14:43:23;0.40;;;0.40;;
84774;SDS011;75005;50.966;11.344;2024-02-04T14:45:49;0.50;;;0.30;;
84774;SDS011;75005;50.966;11.344;2024-02-04T14:48:14;1.00;;;0.50;;
84774;SDS011;75005;50.966;11.344;2024-02-04T14:50:40;2.10;;;0.60;;
84774;SDS011;75005;50.966;11.344;2024-02-04T14:53:05;0.55;;;0.47;;